sensor_id;sensor_type;location;lat;lon;timestamp;P1;durP1;ratioP1;P2;durP2;ratioP2
55879;SDS011;41802;51.564;-1.838;2023-04-01T00:02:08;5.23;;;1.00;;
55879;SDS011;41802;51.564;-1.838;2023-04-01T00:04:35;6.53;;;2.10;;
55879;SDS011;41802;51.564;-1.838;2023-04-01T00:07:04;6.95;;;1.88;;
55879;SDS011;41802;51.564;-1.838;2023-04-01T00:09:32;5.93;;;1.33;;
55879;SDS011;41802;51.564;-1.838;2023-04-01T00:12:01;5.22;;;1.58;;
55879;SDS011;41802;51.564;-1.838;2023-04-01T00:14:29;8.20;;;1.80;;
55879;SDS011;41802;51.564;-1.838;2023-04-01T00:16:56;4.43;;;0.95;;
55879;SDS011;41802;51.564;-1.838;2023-04-01T00:19:24;5.68;;;1.33;;
55879;SDS011;41802;51.564;-1.838;2023-04-01T00:21:52;5.60;;;1.15;;
55879;SDS011;41802;51.564;-1.838;2023-04-01T00:24:21;4.50;;;0.93;;
55879;SDS011;41802;51.564;-1.838;2023-04-01T00:26:48;7.53;;;1.40;;
55879;SDS011;41802;51.564;-1.838;2023-04-01T00:29:16;5.55;;;1.50;;
55879;SDS011;41802;51.564;-1.838;2023-04-01T00:31:44;4.80;;;1.25;;
55879;SDS011;41802;51.564;-1.838;2023-04-01T00:34:12;5.93;;;1.40;;
55879;SDS011;41802;51.564;-1.838;2023-04-01T00:36:41;5.90;;;1.10;;
55879;SDS011;41802;51.564;-1.838;2023-04-01T00:39:08;5.97;;;1.60;;
55879;SDS011;41802;51.564;-1.838;2023-04-01T00:41:37;5.07;;;1.40;;
55879;SDS011;41802;51.564;-1.838;2023-04-01T00:44:13;5.53;;;1.30;;
55879;SDS011;41802;51.564;-1.838;2023-04-01T00:46:43;5.40;;;1.27;;
55879;SDS011;41802;51.564;-1.838;2023-04-01T00:49:10;6.22;;;1.50;;
55879;SDS011;41802;51.564;-1.838;2023-04-01T00:51:38;7.10;;;2.00;;
55879;SDS011;41802;51.564;-1.838;2023-04-01T00:54:06;8.05;;;2.00;;
55879;SDS011;41802;51.564;-1.838;2023-04-01T00:56:35;6.80;;;2.33;;
55879;SDS011;41802;51.564;-1.838;2023-04-01T00:59:05;6.70;;;2.20;;
55879;SDS011;41802;51.564;-1.838;2023-04-01T01:01:34;10.93;;;2.03;;
55879;SDS011;41802;51.564;-1.838;2023-04-01T01:04:02;8.97;;;2.53;;
55879;SDS011;41802;51.564;-1.838;2023-04-01T01:06:34;9.25;;;2.45;;
55879;SDS011;41802;51.564;-1.838;2023-04-01T01:09:07;7.55;;;2.58;;
55879;SDS011;41802;51.564;-1.838;2023-04-01T01:11:37;8.45;;;2.63;;
55879;SDS011;41802;51.564;-1.838;2023-04-01T01:14:17;8.82;;;2.17;;
55879;SDS011;41802;51.564;-1.838;2023-04-01T01:16:50;8.00;;;2.80;;
55879;SDS011;41802;51.564;-1.838;2023-04-01T01:19:36;6.45;;;2.08;;
55879;SDS011;41802;51.564;-1.838;2023-04-01T01:22:14;10.00;;;3.25;;
55879;SDS011;41802;51.564;-1.838;2023-04-01T01:24:55;10.75;;;2.55;;
55879;SDS011;41802;51.564;-1.838;2023-04-01T01:27:24;6.07;;;1.92;;
55879;SDS011;41802;51.564;-1.838;2023-04-01T01:30:00;10.53;;;2.90;;
55879;SDS011;41802;51.564;-1.838;2023-04-01T01:32:44;7.65;;;2.83;;
55879;SDS011;41802;51.564;-1.838;2023-04-01T01:35:18;9.25;;;2.95;;
55879;SDS011;41802;51.564;-1.838;2023-04-01T01:37:48;9.38;;;3.30;;
55879;SDS011;41802;51.564;-1.838;2023-04-01T01:40:17;9.48;;;2.83;;
55879;SDS011;41802;51.564;-1.838;2023-04-01T01:42:46;10.20;;;3.07;;
55879;SDS011;41802;51.564;-1.838;2023-04-01T01:45:16;8.68;;;3.05;;
55879;SDS011;41802;51.564;-1.838;2023-04-01T01:47:46;7.60;;;2.47;;
55879;SDS011;41802;51.564;-1.838;2023-04-01T01:50:15;7.95;;;2.78;;
55879;SDS011;41802;51.564;-1.838;2023-04-01T01:52:44;8.95;;;3.53;;
55879;SDS011;41802;51.564;-1.838;2023-04-01T01:55:26;7.10;;;2.60;;
55879;SDS011;41802;51.564;-1.838;2023-04-01T01:57:55;8.43;;;3.45;;
55879;SDS011;41802;51.564;-1.838;2023-04-01T02:00:25;10.50;;;3.05;;
55879;SDS011;41802;51.564;-1.838;2023-04-01T02:02:53;12.75;;;3.47;;
55879;SDS011;41802;51.564;-1.838;2023-04-01T02:05:22;8.13;;;2.40;;
55879;SDS011;41802;51.564;-1.838;2023-04-01T02:07:54;9.30;;;3.30;;
55879;SDS011;41802;51.564;-1.838;2023-04-01T02:10:24;9.80;;;3.13;;
55879;SDS011;41802;51.564;-1.838;2023-04-01T02:12:52;9.07;;;2.70;;
55879;SDS011;41802;51.564;-1.838;2023-04-01T02:15:20;8.95;;;2.83;;
55879;SDS011;41802;51.564;-1.838;2023-04-01T02:17:48;10.38;;;2.95;;
55879;SDS011;41802;51.564;-1.838;2023-04-01T02:20:18;8.73;;;3.00;;
55879;SDS011;41802;51.564;-1.838;2023-04-01T02:22:48;9.52;;;2.83;;
55879;SDS011;41802;51.564;-1.838;2023-04-01T02:25:18;10.43;;;3.17;;
55879;SDS011;41802;51.564;-1.838;2023-04-01T02:27:48;8.95;;;2.70;;
55879;SDS011;41802;51.564;-1.838;2023-04-01T02:30:16;9.00;;;3.00;;
55879;SDS011;41802;51.564;-1.838;2023-04-01T02:32:44;10.73;;;2.83;;
55879;SDS011;41802;51.564;-1.838;2023-04-01T02:35:13;10.48;;;2.63;;
55879;SDS011;41802;51.564;-1.838;2023-04-01T02:37:41;7.90;;;2.45;;
55879;SDS011;41802;51.564;-1.838;2023-04-01T02:40:11;9.52;;;2.33;;
55879;SDS011;41802;51.564;-1.838;2023-04-01T02:42:40;7.72;;;2.75;;
55879;SDS011;41802;51.564;-1.838;2023-04-01T02:45:08;10.70;;;3.13;;
55879;SDS011;41802;51.564;-1.838;2023-04-01T02:47:36;9.07;;;2.42;;
55879;SDS011;41802;51.564;-1.838;2023-04-01T02:50:04;8.13;;;2.88;;
55879;SDS011;41802;51.564;-1.838;2023-04-01T02:52:32;8.07;;;2.67;;
55879;SDS011;41802;51.564;-1.838;2023-04-01T02:55:00;8.63;;;2.45;;
55879;SDS011;41802;51.564;-1.838;2023-04-01T02:57:27;10.30;;;2.93;;
55879;SDS011;41802;51.564;-1.838;2023-04-01T02:59:56;7.90;;;1.95;;
55879;SDS011;41802;51.564;-1.838;2023-04-01T03:02:24;11.85;;;2.60;;
55879;SDS011;41802;51.564;-1.838;2023-04-01T03:04:52;7.93;;;2.13;;
55879;SDS011;41802;51.564;-1.838;2023-04-01T03:07:20;6.63;;;1.67;;
55879;SDS011;41802;51.564;-1.838;2023-04-01T03:09:47;7.53;;;1.80;;
55879;SDS011;41802;51.564;-1.838;2023-04-01T03:12:15;5.63;;;1.70;;
55879;SDS011;41802;51.564;-1.838;2023-04-01T03:14:42;6.03;;;1.38;;
55879;SDS011;41802;51.564;-1.838;2023-04-01T03:17:11;5.43;;;1.23;;
55879;SDS011;41802;51.564;-1.838;2023-04-01T03:19:40;7.18;;;1.40;;
55879;SDS011;41802;51.564;-1.838;2023-04-01T03:22:07;7.77;;;1.70;;
55879;SDS011;41802;51.564;-1.838;2023-04-01T03:24:36;6.22;;;1.50;;
55879;SDS011;41802;51.564;-1.838;2023-04-01T03:27:04;4.93;;;1.38;;
55879;SDS011;41802;51.564;-1.838;2023-04-01T03:29:32;5.13;;;0.90;;
55879;SDS011;41802;51.564;-1.838;2023-04-01T03:32:00;5.00;;;0.98;;
55879;SDS011;41802;51.564;-1.838;2023-04-01T03:34:29;3.93;;;1.00;;
55879;SDS011;41802;51.564;-1.838;2023-04-01T03:36:57;4.18;;;0.80;;
55879;SDS011;41802;51.564;-1.838;2023-04-01T03:39:24;4.30;;;1.02;;
55879;SDS011;41802;51.564;-1.838;2023-04-01T03:41:52;4.97;;;1.13;;
55879;SDS011;41802;51.564;-1.838;2023-04-01T03:44:20;5.75;;;1.10;;
55879;SDS011;41802;51.564;-1.838;2023-04-01T03:46:47;4.83;;;1.07;;
55879;SDS011;41802;51.564;-1.838;2023-04-01T03:49:15;4.65;;;1.02;;
55879;SDS011;41802;51.564;-1.838;2023-04-01T03:51:44;5.75;;;1.50;;
55879;SDS011;41802;51.564;-1.838;2023-04-01T03:54:12;6.82;;;0.80;;
55879;SDS011;41802;51.564;-1.838;2023-04-01T03:56:40;3.95;;;0.80;;
55879;SDS011;41802;51.564;-1.838;2023-04-01T03:59:08;5.40;;;1.37;;
55879;SDS011;41802;51.564;-1.838;2023-04-01T04:01:36;3.88;;;1.00;;
55879;SDS011;41802;51.564;-1.838;2023-04-01T04:04:04;4.57;;;0.82;;
55879;SDS011;41802;51.564;-1.838;2023-04-01T04:06:32;3.20;;;0.60;;
55879;SDS011;41802;51.564;-1.838;2023-04-01T04:09:02;4.60;;;0.50;;
55879;SDS011;41802;51.564;-1.838;2023-04-01T04:11:30;2.83;;;0.40;;
55879;SDS011;41802;51.564;-1.838;2023-04-01T04:13:57;2.08;;;0.32;;
55879;SDS011;41802;51.564;-1.838;2023-04-01T04:16:25;3.70;;;0.45;;
55879;SDS011;41802;51.564;-1.838;2023-04-01T04:18:53;2.75;;;0.40;;
55879;SDS011;41802;51.564;-1.838;2023-04-01T04:21:21;2.83;;;0.60;;
55879;SDS011;41802;51.564;-1.838;2023-04-01T04:23:52;3.80;;;0.53;;
55879;SDS011;41802;51.564;-1.838;2023-04-01T04:26:21;3.03;;;0.40;;
55879;SDS011;41802;51.564;-1.838;2023-04-01T04:28:49;4.85;;;0.70;;
55879;SDS011;41802;51.564;-1.838;2023-04-01T04:31:18;3.22;;;0.50;;
55879;SDS011;41802;51.564;-1.838;2023-04-01T04:33:46;2.95;;;0.52;;
55879;SDS011;41802;51.564;-1.838;2023-04-01T04:36:14;3.70;;;0.63;;
55879;SDS011;41802;51.564;-1.838;2023-04-01T04:38:42;2.80;;;0.50;;
55879;SDS011;41802;51.564;-1.838;2023-04-01T04:41:10;4.45;;;0.90;;
55879;SDS011;41802;51.564;-1.838;2023-04-01T04:43:39;4.07;;;0.80;;
55879;SDS011;41802;51.564;-1.838;2023-04-01T04:46:07;3.47;;;0.73;;
55879;SDS011;41802;51.564;-1.838;2023-04-01T04:48:35;4.33;;;0.73;;
55879;SDS011;41802;51.564;-1.838;2023-04-01T04:51:02;4.00;;;0.73;;
55879;SDS011;41802;51.564;-1.838;2023-04-01T04:53:31;4.22;;;0.77;;
55879;SDS011;41802;51.564;-1.838;2023-04-01T04:55:59;3.72;;;0.70;;
55879;SDS011;41802;51.564;-1.838;2023-04-01T04:58:26;5.30;;;0.70;;
55879;SDS011;41802;51.564;-1.838;2023-04-01T05:00:55;4.57;;;1.10;;
55879;SDS011;41802;51.564;-1.838;2023-04-01T05:03:23;4.35;;;0.88;;
55879;SDS011;41802;51.564;-1.838;2023-04-01T05:05:53;4.47;;;1.08;;
55879;SDS011;41802;51.564;-1.838;2023-04-01T05:08:21;4.22;;;0.85;;
55879;SDS011;41802;51.564;-1.838;2023-04-01T05:10:49;4.55;;;1.10;;
55879;SDS011;41802;51.564;-1.838;2023-04-01T05:13:16;5.40;;;1.37;;
55879;SDS011;41802;51.564;-1.838;2023-04-01T05:15:45;5.60;;;1.60;;
55879;SDS011;41802;51.564;-1.838;2023-04-01T05:18:19;8.60;;;1.23;;
55879;SDS011;41802;51.564;-1.838;2023-04-01T05:20:46;6.10;;;1.40;;
55879;SDS011;41802;51.564;-1.838;2023-04-01T05:23:15;8.10;;;1.50;;
55879;SDS011;41802;51.564;-1.838;2023-04-01T05:25:42;5.73;;;1.27;;
55879;SDS011;41802;51.564;-1.838;2023-04-01T05:28:11;4.45;;;1.15;;
55879;SDS011;41802;51.564;-1.838;2023-04-01T05:30:39;6.28;;;1.60;;
55879;SDS011;41802;51.564;-1.838;2023-04-01T05:33:07;5.25;;;1.20;;
55879;SDS011;41802;51.564;-1.838;2023-04-01T05:35:36;5.68;;;1.60;;
55879;SDS011;41802;51.564;-1.838;2023-04-01T05:38:04;4.87;;;0.97;;
55879;SDS011;41802;51.564;-1.838;2023-04-01T05:40:33;6.65;;;1.70;;
55879;SDS011;41802;51.564;-1.838;2023-04-01T05:43:01;6.68;;;1.80;;
55879;SDS011;41802;51.564;-1.838;2023-04-01T05:45:28;6.13;;;1.42;;
55879;SDS011;41802;51.564;-1.838;2023-04-01T05:47:57;6.35;;;1.98;;
55879;SDS011;41802;51.564;-1.838;2023-04-01T05:50:24;5.87;;;1.50;;
55879;SDS011;41802;51.564;-1.838;2023-04-01T05:52:53;6.25;;;1.80;;
55879;SDS011;41802;51.564;-1.838;2023-04-01T05:55:21;7.78;;;2.05;;
55879;SDS011;41802;51.564;-1.838;2023-04-01T05:57:48;6.35;;;1.92;;
55879;SDS011;41802;51.564;-1.838;2023-04-01T06:00:16;6.95;;;1.75;;
55879;SDS011;41802;51.564;-1.838;2023-04-01T06:02:46;8.00;;;2.23;;
55879;SDS011;41802;51.564;-1.838;2023-04-01T06:05:15;6.35;;;1.98;;
55879;SDS011;41802;51.564;-1.838;2023-04-01T06:07:44;6.97;;;1.92;;
55879;SDS011;41802;51.564;-1.838;2023-04-01T06:10:13;7.35;;;1.88;;
55879;SDS011;41802;51.564;-1.838;2023-04-01T06:12:47;7.93;;;2.33;;
55879;SDS011;41802;51.564;-1.838;2023-04-01T06:15:21;8.33;;;2.23;;
55879;SDS011;41802;51.564;-1.838;2023-04-01T06:17:53;7.38;;;2.00;;
55879;SDS011;41802;51.564;-1.838;2023-04-01T06:20:23;8.95;;;2.72;;
55879;SDS011;41802;51.564;-1.838;2023-04-01T06:23:00;8.95;;;2.65;;
55879;SDS011;41802;51.564;-1.838;2023-04-01T06:25:39;11.73;;;3.20;;
55879;SDS011;41802;51.564;-1.838;2023-04-01T06:28:29;14.37;;;4.23;;
55879;SDS011;41802;51.564;-1.838;2023-04-01T06:31:02;15.05;;;4.85;;
55879;SDS011;41802;51.564;-1.838;2023-04-01T06:33:35;17.60;;;5.57;;
55879;SDS011;41802;51.564;-1.838;2023-04-01T06:36:17;20.23;;;6.10;;
55879;SDS011;41802;51.564;-1.838;2023-04-01T06:38:48;19.38;;;6.45;;
55879;SDS011;41802;51.564;-1.838;2023-04-01T06:41:39;20.77;;;6.37;;
55879;SDS011;41802;51.564;-1.838;2023-04-01T06:44:13;16.40;;;5.30;;
55879;SDS011;41802;51.564;-1.838;2023-04-01T06:46:44;14.77;;;4.55;;
55879;SDS011;41802;51.564;-1.838;2023-04-01T06:49:30;14.27;;;3.70;;
55879;SDS011;41802;51.564;-1.838;2023-04-01T06:52:00;15.05;;;3.95;;
55879;SDS011;41802;51.564;-1.838;2023-04-01T06:54:30;12.73;;;3.87;;
55879;SDS011;41802;51.564;-1.838;2023-04-01T06:57:00;13.55;;;4.30;;
55879;SDS011;41802;51.564;-1.838;2023-04-01T06:59:31;17.30;;;5.57;;
55879;SDS011;41802;51.564;-1.838;2023-04-01T07:02:01;18.88;;;5.25;;
55879;SDS011;41802;51.564;-1.838;2023-04-01T07:04:30;16.73;;;4.95;;
55879;SDS011;41802;51.564;-1.838;2023-04-01T07:06:59;17.47;;;4.93;;
55879;SDS011;41802;51.564;-1.838;2023-04-01T07:09:30;21.45;;;6.07;;
55879;SDS011;41802;51.564;-1.838;2023-04-01T07:12:01;18.00;;;5.00;;
55879;SDS011;41802;51.564;-1.838;2023-04-01T07:14:30;19.85;;;5.07;;
55879;SDS011;41802;51.564;-1.838;2023-04-01T07:16:59;22.02;;;5.97;;
55879;SDS011;41802;51.564;-1.838;2023-04-01T07:19:31;16.77;;;6.23;;
55879;SDS011;41802;51.564;-1.838;2023-04-01T07:22:00;16.85;;;5.03;;
55879;SDS011;41802;51.564;-1.838;2023-04-01T07:24:29;20.88;;;5.70;;
55879;SDS011;41802;51.564;-1.838;2023-04-01T07:27:00;17.10;;;4.45;;
55879;SDS011;41802;51.564;-1.838;2023-04-01T07:29:29;19.75;;;4.90;;
55879;SDS011;41802;51.564;-1.838;2023-04-01T07:32:05;18.20;;;4.50;;
55879;SDS011;41802;51.564;-1.838;2023-04-01T07:34:35;18.92;;;4.75;;
55879;SDS011;41802;51.564;-1.838;2023-04-01T07:37:06;17.38;;;4.88;;
55879;SDS011;41802;51.564;-1.838;2023-04-01T07:39:41;17.35;;;4.95;;
55879;SDS011;41802;51.564;-1.838;2023-04-01T07:42:14;21.17;;;5.97;;
55879;SDS011;41802;51.564;-1.838;2023-04-01T07:44:44;21.17;;;5.20;;
55879;SDS011;41802;51.564;-1.838;2023-04-01T07:47:23;16.48;;;4.57;;
55879;SDS011;41802;51.564;-1.838;2023-04-01T07:49:55;17.92;;;5.07;;
55879;SDS011;41802;51.564;-1.838;2023-04-01T07:52:28;19.05;;;4.40;;
55879;SDS011;41802;51.564;-1.838;2023-04-01T07:54:59;23.63;;;5.55;;
55879;SDS011;41802;51.564;-1.838;2023-04-01T07:57:31;21.43;;;5.57;;
55879;SDS011;41802;51.564;-1.838;2023-04-01T08:00:02;22.17;;;5.43;;
55879;SDS011;41802;51.564;-1.838;2023-04-01T08:02:38;25.55;;;5.22;;
55879;SDS011;41802;51.564;-1.838;2023-04-01T08:05:14;23.65;;;5.60;;
55879;SDS011;41802;51.564;-1.838;2023-04-01T08:07:48;22.13;;;4.95;;
55879;SDS011;41802;51.564;-1.838;2023-04-01T08:10:18;17.53;;;5.23;;
55879;SDS011;41802;51.564;-1.838;2023-04-01T08:12:51;20.15;;;5.45;;
55879;SDS011;41802;51.564;-1.838;2023-04-01T08:15:25;21.75;;;5.30;;
55879;SDS011;41802;51.564;-1.838;2023-04-01T08:17:56;18.92;;;5.07;;
55879;SDS011;41802;51.564;-1.838;2023-04-01T08:20:30;25.73;;;6.10;;
55879;SDS011;41802;51.564;-1.838;2023-04-01T08:23:02;24.17;;;5.93;;
55879;SDS011;41802;51.564;-1.838;2023-04-01T08:25:32;24.77;;;5.60;;
55879;SDS011;41802;51.564;-1.838;2023-04-01T08:28:05;20.35;;;5.68;;
55879;SDS011;41802;51.564;-1.838;2023-04-01T08:30:39;19.77;;;5.20;;
55879;SDS011;41802;51.564;-1.838;2023-04-01T08:33:10;18.00;;;5.43;;
55879;SDS011;41802;51.564;-1.838;2023-04-01T08:35:42;22.20;;;5.20;;
55879;SDS011;41802;51.564;-1.838;2023-04-01T08:38:14;23.92;;;5.65;;
55879;SDS011;41802;51.564;-1.838;2023-04-01T08:40:55;21.48;;;5.03;;
55879;SDS011;41802;51.564;-1.838;2023-04-01T08:43:38;23.65;;;6.03;;
55879;SDS011;41802;51.564;-1.838;2023-04-01T08:46:14;21.60;;;5.53;;
55879;SDS011;41802;51.564;-1.838;2023-04-01T08:48:48;22.40;;;4.87;;
55879;SDS011;41802;51.564;-1.838;2023-04-01T08:51:30;21.65;;;5.35;;
55879;SDS011;41802;51.564;-1.838;2023-04-01T08:54:07;21.00;;;5.40;;
55879;SDS011;41802;51.564;-1.838;2023-04-01T08:56:37;17.70;;;4.85;;
55879;SDS011;41802;51.564;-1.838;2023-04-01T08:59:21;18.52;;;4.45;;
55879;SDS011;41802;51.564;-1.838;2023-04-01T09:04:50;16.50;;;3.80;;
55879;SDS011;41802;51.564;-1.838;2023-04-01T09:07:29;19.75;;;4.50;;
55879;SDS011;41802;51.564;-1.838;2023-04-01T09:10:18;13.18;;;4.30;;
55879;SDS011;41802;51.564;-1.838;2023-04-01T09:12:54;17.67;;;4.50;;
55879;SDS011;41802;51.564;-1.838;2023-04-01T09:15:48;14.63;;;4.17;;
55879;SDS011;41802;51.564;-1.838;2023-04-01T09:18:24;19.95;;;4.72;;
55879;SDS011;41802;51.564;-1.838;2023-04-01T09:20:59;14.98;;;4.88;;
55879;SDS011;41802;51.564;-1.838;2023-04-01T09:23:34;15.68;;;4.22;;
55879;SDS011;41802;51.564;-1.838;2023-04-01T09:26:08;12.73;;;3.78;;
55879;SDS011;41802;51.564;-1.838;2023-04-01T09:28:41;17.37;;;4.27;;
55879;SDS011;41802;51.564;-1.838;2023-04-01T09:31:22;13.35;;;3.90;;
55879;SDS011;41802;51.564;-1.838;2023-04-01T09:34:08;15.50;;;3.72;;
55879;SDS011;41802;51.564;-1.838;2023-04-01T09:36:44;15.73;;;4.03;;
55879;SDS011;41802;51.564;-1.838;2023-04-01T09:39:24;13.75;;;4.38;;
55879;SDS011;41802;51.564;-1.838;2023-04-01T09:42:15;17.87;;;4.70;;
55879;SDS011;41802;51.564;-1.838;2023-04-01T09:44:51;14.63;;;4.60;;
55879;SDS011;41802;51.564;-1.838;2023-04-01T09:47:27;15.75;;;4.95;;
55879;SDS011;41802;51.564;-1.838;2023-04-01T09:50:00;14.70;;;3.60;;
55879;SDS011;41802;51.564;-1.838;2023-04-01T09:52:35;15.30;;;3.90;;
55879;SDS011;41802;51.564;-1.838;2023-04-01T09:55:06;17.93;;;5.13;;
55879;SDS011;41802;51.564;-1.838;2023-04-01T10:00:43;17.80;;;4.95;;
55879;SDS011;41802;51.564;-1.838;2023-04-01T10:06:06;16.00;;;4.85;;
55879;SDS011;41802;51.564;-1.838;2023-04-01T10:08:51;17.53;;;5.30;;
55879;SDS011;41802;51.564;-1.838;2023-04-01T10:20:06;17.45;;;4.82;;
55879;SDS011;41802;51.564;-1.838;2023-04-01T10:22:41;20.87;;;4.73;;
55879;SDS011;41802;51.564;-1.838;2023-04-01T10:27:53;18.83;;;5.03;;
55879;SDS011;41802;51.564;-1.838;2023-04-01T10:30:29;15.75;;;4.85;;
55879;SDS011;41802;51.564;-1.838;2023-04-01T10:33:21;15.00;;;4.35;;
55879;SDS011;41802;51.564;-1.838;2023-04-01T10:38:53;13.68;;;4.50;;
55879;SDS011;41802;51.564;-1.838;2023-04-01T10:44:26;11.85;;;3.85;;
55879;SDS011;41802;51.564;-1.838;2023-04-01T10:47:08;11.38;;;3.83;;
55879;SDS011;41802;51.564;-1.838;2023-04-01T10:49:46;15.97;;;3.27;;
55879;SDS011;41802;51.564;-1.838;2023-04-01T10:55:10;10.63;;;3.40;;
55879;SDS011;41802;51.564;-1.838;2023-04-01T11:00:44;13.98;;;2.97;;
55879;SDS011;41802;51.564;-1.838;2023-04-01T11:03:35;12.83;;;3.87;;
55879;SDS011;41802;51.564;-1.838;2023-04-01T11:14:59;13.68;;;4.25;;
55879;SDS011;41802;51.564;-1.838;2023-04-01T11:20:44;13.10;;;4.07;;
55879;SDS011;41802;51.564;-1.838;2023-04-01T11:25:56;12.95;;;3.78;;
55879;SDS011;41802;51.564;-1.838;2023-04-01T11:28:42;12.13;;;4.40;;
55879;SDS011;41802;51.564;-1.838;2023-04-01T11:31:19;17.00;;;4.17;;
55879;SDS011;41802;51.564;-1.838;2023-04-01T11:33:49;14.98;;;4.25;;
55879;SDS011;41802;51.564;-1.838;2023-04-01T11:36:24;14.40;;;4.07;;
55879;SDS011;41802;51.564;-1.838;2023-04-01T11:39:05;11.80;;;4.65;;
55879;SDS011;41802;51.564;-1.838;2023-04-01T11:41:38;14.05;;;4.82;;
55879;SDS011;41802;51.564;-1.838;2023-04-01T11:44:14;15.77;;;4.23;;
55879;SDS011;41802;51.564;-1.838;2023-04-01T11:46:49;14.68;;;4.40;;
55879;SDS011;41802;51.564;-1.838;2023-04-01T11:49:25;16.75;;;5.28;;
55879;SDS011;41802;51.564;-1.838;2023-04-01T11:52:04;17.23;;;4.97;;
55879;SDS011;41802;51.564;-1.838;2023-04-01T11:54:40;17.98;;;5.28;;
55879;SDS011;41802;51.564;-1.838;2023-04-01T11:57:14;15.53;;;5.53;;
55879;SDS011;41802;51.564;-1.838;2023-04-01T12:02:37;16.52;;;4.68;;
55879;SDS011;41802;51.564;-1.838;2023-04-01T12:05:23;13.82;;;4.80;;
55879;SDS011;41802;51.564;-1.838;2023-04-01T12:07:53;15.40;;;5.28;;
55879;SDS011;41802;51.564;-1.838;2023-04-01T12:10:25;13.73;;;5.20;;
55879;SDS011;41802;51.564;-1.838;2023-04-01T12:12:57;12.85;;;4.32;;
55879;SDS011;41802;51.564;-1.838;2023-04-01T12:15:29;13.35;;;4.50;;
55879;SDS011;41802;51.564;-1.838;2023-04-01T12:18:00;16.30;;;5.50;;
55879;SDS011;41802;51.564;-1.838;2023-04-01T12:20:33;17.52;;;5.57;;
55879;SDS011;41802;51.564;-1.838;2023-04-01T12:23:08;13.93;;;5.20;;
55879;SDS011;41802;51.564;-1.838;2023-04-01T12:25:42;15.68;;;5.43;;
55879;SDS011;41802;51.564;-1.838;2023-04-01T12:28:18;13.00;;;4.97;;
55879;SDS011;41802;51.564;-1.838;2023-04-01T12:34:00;13.75;;;4.38;;
55879;SDS011;41802;51.564;-1.838;2023-04-01T12:36:46;12.00;;;3.53;;
55879;SDS011;41802;51.564;-1.838;2023-04-01T12:39:29;15.88;;;4.45;;
55879;SDS011;41802;51.564;-1.838;2023-04-01T12:42:03;15.82;;;4.97;;
55879;SDS011;41802;51.564;-1.838;2023-04-01T12:44:35;12.93;;;4.78;;
55879;SDS011;41802;51.564;-1.838;2023-04-01T12:47:10;16.60;;;4.57;;
55879;SDS011;41802;51.564;-1.838;2023-04-01T12:49:55;15.83;;;5.23;;
55879;SDS011;41802;51.564;-1.838;2023-04-01T12:52:25;14.77;;;5.30;;
55879;SDS011;41802;51.564;-1.838;2023-04-01T12:55:05;15.10;;;4.90;;
55879;SDS011;41802;51.564;-1.838;2023-04-01T13:00:27;11.85;;;4.50;;
55879;SDS011;41802;51.564;-1.838;2023-04-01T13:03:03;11.10;;;4.10;;
55879;SDS011;41802;51.564;-1.838;2023-04-01T13:05:38;12.73;;;4.20;;
55879;SDS011;41802;51.564;-1.838;2023-04-01T13:08:13;11.50;;;3.75;;
55879;SDS011;41802;51.564;-1.838;2023-04-01T13:10:49;12.13;;;3.83;;
55879;SDS011;41802;51.564;-1.838;2023-04-01T13:13:29;15.00;;;4.20;;
55879;SDS011;41802;51.564;-1.838;2023-04-01T13:16:01;11.43;;;3.43;;
55879;SDS011;41802;51.564;-1.838;2023-04-01T13:18:32;11.48;;;3.63;;
55879;SDS011;41802;51.564;-1.838;2023-04-01T13:21:11;10.48;;;3.55;;
55879;SDS011;41802;51.564;-1.838;2023-04-01T13:23:44;11.55;;;3.92;;
55879;SDS011;41802;51.564;-1.838;2023-04-01T13:26:13;10.98;;;3.45;;
55879;SDS011;41802;51.564;-1.838;2023-04-01T13:28:46;8.37;;;3.23;;
55879;SDS011;41802;51.564;-1.838;2023-04-01T13:31:21;10.52;;;3.15;;
55879;SDS011;41802;51.564;-1.838;2023-04-01T13:33:55;7.07;;;2.35;;
55879;SDS011;41802;51.564;-1.838;2023-04-01T13:36:31;6.70;;;2.10;;
55879;SDS011;41802;51.564;-1.838;2023-04-01T13:41:57;7.40;;;2.70;;
55879;SDS011;41802;51.564;-1.838;2023-04-01T13:44:28;5.93;;;2.15;;
55879;SDS011;41802;51.564;-1.838;2023-04-01T13:47:02;5.82;;;2.03;;
55879;SDS011;41802;51.564;-1.838;2023-04-01T13:49:45;6.63;;;1.90;;
55879;SDS011;41802;51.564;-1.838;2023-04-01T13:52:29;5.80;;;1.60;;
55879;SDS011;41802;51.564;-1.838;2023-04-01T13:57:52;5.78;;;1.65;;
55879;SDS011;41802;51.564;-1.838;2023-04-01T14:00:30;6.35;;;1.75;;
55879;SDS011;41802;51.564;-1.838;2023-04-01T14:03:08;5.75;;;1.90;;
55879;SDS011;41802;51.564;-1.838;2023-04-01T14:05:46;5.18;;;1.80;;
55879;SDS011;41802;51.564;-1.838;2023-04-01T14:08:20;5.13;;;1.50;;
55879;SDS011;41802;51.564;-1.838;2023-04-01T14:10:52;5.10;;;1.33;;
55879;SDS011;41802;51.564;-1.838;2023-04-01T14:13:28;6.05;;;1.40;;
55879;SDS011;41802;51.564;-1.838;2023-04-01T14:16:16;4.65;;;1.20;;
55879;SDS011;41802;51.564;-1.838;2023-04-01T14:18:53;3.92;;;1.20;;
55879;SDS011;41802;51.564;-1.838;2023-04-01T14:21:29;4.50;;;1.33;;
55879;SDS011;41802;51.564;-1.838;2023-04-01T14:24:17;7.00;;;1.08;;
55879;SDS011;41802;51.564;-1.838;2023-04-01T14:27:00;3.95;;;0.73;;
55879;SDS011;41802;51.564;-1.838;2023-04-01T14:29:30;5.22;;;1.42;;
55879;SDS011;41802;51.564;-1.838;2023-04-01T14:32:02;4.28;;;1.30;;
55879;SDS011;41802;51.564;-1.838;2023-04-01T14:34:38;3.87;;;0.87;;
55879;SDS011;41802;51.564;-1.838;2023-04-01T14:37:13;3.38;;;0.90;;
55879;SDS011;41802;51.564;-1.838;2023-04-01T14:39:54;4.57;;;0.80;;
55879;SDS011;41802;51.564;-1.838;2023-04-01T14:45:26;4.13;;;1.05;;
55879;SDS011;41802;51.564;-1.838;2023-04-01T14:47:59;3.97;;;0.70;;
55879;SDS011;41802;51.564;-1.838;2023-04-01T14:50:40;5.63;;;1.40;;
55879;SDS011;41802;51.564;-1.838;2023-04-01T14:53:11;7.35;;;1.40;;
55879;SDS011;41802;51.564;-1.838;2023-04-01T14:55:47;4.95;;;1.33;;
55879;SDS011;41802;51.564;-1.838;2023-04-01T14:58:16;5.43;;;1.55;;
55879;SDS011;41802;51.564;-1.838;2023-04-01T15:00:48;4.70;;;1.60;;
55879;SDS011;41802;51.564;-1.838;2023-04-01T15:03:19;5.53;;;1.67;;
55879;SDS011;41802;51.564;-1.838;2023-04-01T15:05:49;5.35;;;1.40;;
55879;SDS011;41802;51.564;-1.838;2023-04-01T15:08:18;5.03;;;1.33;;
55879;SDS011;41802;51.564;-1.838;2023-04-01T15:16:20;4.95;;;1.10;;
55879;SDS011;41802;51.564;-1.838;2023-04-01T15:18:54;5.15;;;1.30;;
55879;SDS011;41802;51.564;-1.838;2023-04-01T15:21:27;7.10;;;1.33;;
55879;SDS011;41802;51.564;-1.838;2023-04-01T15:24:03;5.90;;;1.23;;
55879;SDS011;41802;51.564;-1.838;2023-04-01T15:32:08;5.55;;;0.98;;
55879;SDS011;41802;51.564;-1.838;2023-04-01T15:34:40;4.63;;;1.42;;
55879;SDS011;41802;51.564;-1.838;2023-04-01T15:37:10;4.47;;;1.20;;
55879;SDS011;41802;51.564;-1.838;2023-04-01T15:39:48;5.03;;;1.10;;
55879;SDS011;41802;51.564;-1.838;2023-04-01T15:42:27;4.90;;;1.20;;
55879;SDS011;41802;51.564;-1.838;2023-04-01T15:45:01;5.15;;;1.23;;
55879;SDS011;41802;51.564;-1.838;2023-04-01T15:47:35;4.28;;;1.00;;
55879;SDS011;41802;51.564;-1.838;2023-04-01T15:50:19;4.88;;;1.02;;
55879;SDS011;41802;51.564;-1.838;2023-04-01T15:52:49;4.40;;;1.30;;
55879;SDS011;41802;51.564;-1.838;2023-04-01T15:55:20;4.38;;;1.05;;
55879;SDS011;41802;51.564;-1.838;2023-04-01T15:58:00;4.32;;;0.90;;
55879;SDS011;41802;51.564;-1.838;2023-04-01T16:00:31;4.57;;;1.13;;
55879;SDS011;41802;51.564;-1.838;2023-04-01T16:03:16;4.18;;;1.05;;
55879;SDS011;41802;51.564;-1.838;2023-04-01T16:05:59;4.63;;;1.23;;
55879;SDS011;41802;51.564;-1.838;2023-04-01T16:11:19;4.78;;;0.90;;
55879;SDS011;41802;51.564;-1.838;2023-04-01T16:13:52;4.13;;;0.65;;
55879;SDS011;41802;51.564;-1.838;2023-04-01T16:16:24;4.22;;;0.85;;
55879;SDS011;41802;51.564;-1.838;2023-04-01T16:18:59;3.40;;;0.87;;